Terminal Aerodrome Forecast
Issued by NWS Louisville, KY

Home | Current Version | Previous Version | Text Only | Print | Product List | Glossary On
Versions: 1 2 3 4 5 6 7 8 9 10 11 12 13 14 15 16 17
000
FTUS43 KLMK 270200 AAB
TAFLEX
TAF AMD
KLEX 270255Z 2703/2724 23012KT P6SM VCTS SCT015 BKN035CB
      TEMPO 2703/2704 32025G45KT 1SM +TSRA BKN020 OVC040CB
     FM270600 20008KT P6SM VCTS BKN040CB
     FM271300 24015G24KT P6SM SCT040 BKN120=

USA.gov is the U.S. government's official web portal to all federal, state and local government web resources and services.